»·PEaware :: N625VA KSNA-KSNA

N625VA :: KSNA-KSNA

FLIGHT INFORMATION

Flight Status: Arrived
Operator: Privately registered:
United States
More flights under this callsign
Pilot: Paul P. (20696)
Aircraft: AIRBUS A320
(A320)
More flights by this aircraft type
Origin: KSNA John Wayne-Orange Co
United States
Destination: KSNA John Wayne-Orange Co
United States
More flights between these airports :: More routes between these airports
Route: +SLI
File this flight plan on PilotEdge
Remarks: RMK / I-1 RATING
Altitude:
(Current/Filed)
3,000ft
Speed:
(Current/Filed)
250kts
Departed: 06-Dec-18 08:22 AM
Arrived: 06-Dec-18 08:41 AM
Distance/Time
Traveled:
0nm/0:19
Distance/Time
To Go:
Arrived

Flight Plot

Page will automatically refresh every two minutes.


Map Options




Map Legend


Flown Route
Filed Route
Departure Airport
Arrival Airport
Navaid (VOR, NDB)
Fix

Horizontal Profiles

Position Reports

Time Latitude Longitude Heading Altitude Ground
Speed
06-Dec-18 07:54 33.672297 -117.866637 208 60ft 0kts
06-Dec-18 07:55 33.672297 -117.866637 208 60ft 0kts
06-Dec-18 07:56 33.672297 -117.866637 208 60ft 0kts
06-Dec-18 07:57 33.672297 -117.866637 208 60ft 0kts
06-Dec-18 07:58 33.672297 -117.866637 208 60ft 0kts
06-Dec-18 07:59 33.672297 -117.866637 208 60ft 0kts
06-Dec-18 08:00 33.672297 -117.866637 208 60ft 0kts
06-Dec-18 08:01 33.672297 -117.866637 208 60ft 0kts
06-Dec-18 08:02 33.672297 -117.866637 208 60ft 0kts
06-Dec-18 08:03 33.672297 -117.866637 208 60ft 0kts
06-Dec-18 08:04 33.672297 -117.866637 208 60ft 0kts
06-Dec-18 08:05 33.672297 -117.866637 208 60ft 0kts
06-Dec-18 08:06 33.672297 -117.866637 208 60ft 0kts
06-Dec-18 08:07 33.672297 -117.866637 208 60ft 0kts
06-Dec-18 08:08 33.672297 -117.866637 208 60ft 0kts
06-Dec-18 08:09 33.672297 -117.866637 208 60ft 0kts
06-Dec-18 08:10 33.672297 -117.866637 208 60ft 0kts
06-Dec-18 08:11 33.672297 -117.866637 208 60ft 0kts
06-Dec-18 08:12 33.672297 -117.866637 208 60ft 0kts
06-Dec-18 08:13 33.672297 -117.866637 208 60ft 0kts
06-Dec-18 08:14 33.672297 -117.866637 208 60ft 0kts
06-Dec-18 08:15 33.672297 -117.866637 208 60ft 0kts
06-Dec-18 08:16 33.672205 -117.866786 272 62ft 1kts
06-Dec-18 08:17 33.674141 -117.866443 26 65ft 21kts
06-Dec-18 08:18 33.679668 -117.862950 27 65ft 10kts
06-Dec-18 08:19 33.681121 -117.864139 299 65ft 0kts
06-Dec-18 08:20 33.681190 -117.865367 210 65ft 5kts
06-Dec-18 08:21 33.655196 -117.881175 191 1860ft 173kts
06-Dec-18 08:22 33.598813 -117.893307 187 4863ft 245kts
06-Dec-18 08:23 33.563065 -117.953485 286 5013ft 276kts
06-Dec-18 08:24 33.628558 -117.999846 342 5012ft 285kts
06-Dec-18 08:25 33.697759 -117.987556 22 5007ft 239kts
06-Dec-18 08:26 33.760603 -117.960922 22 5006ft 236kts
06-Dec-18 08:27 33.822497 -117.935560 22 5005ft 233kts
06-Dec-18 08:28 33.881538 -117.905276 36 5005ft 229kts
06-Dec-18 08:29 33.908320 -117.841576 73 4335ft 212kts
06-Dec-18 08:30 33.928179 -117.775776 72 3499ft 208kts
06-Dec-18 08:31 33.948788 -117.709806 72 3092ft 213kts
06-Dec-18 08:32 33.967364 -117.642661 97 3080ft 207kts
06-Dec-18 08:33 33.923990 -117.630299 227 3081ft 220kts
06-Dec-18 08:34 33.889732 -117.692275 232 3078ft 221kts
06-Dec-18 08:35 33.854539 -117.753356 215 3079ft 218kts
06-Dec-18 08:36 33.798215 -117.791281 204 2647ft 221kts
06-Dec-18 08:37 33.749819 -117.821932 203 1578ft 157kts
06-Dec-18 08:38 33.718026 -117.842036 203 899ft 118kts
06-Dec-18 08:39 33.688912 -117.860499 204 254ft 118kts
06-Dec-18 08:40 33.670752 -117.871973 204 65ft 20kts
06-Dec-18 08:41 33.670178 -117.869789 37 65ft 18kts
06-Dec-18 08:42 33.672209 -117.867116 117 65ft 6kts
06-Dec-18 08:43 33.672110 -117.866883 118 65ft 0kts
06-Dec-18 08:44 33.672110 -117.866883 118 65ft 0kts
06-Dec-18 08:45 33.672110 -117.866883 118 65ft 0kts

Navigation Log

Ident Type
Flight plan parsing failed, navigation log unavailable